createdAt,value
2023-04-18T00:01:44.546Z,100755.91
2023-04-18T00:04:13.732Z,100759.63
2023-04-18T00:06:40.778Z,100759.91
2023-04-18T00:09:07.435Z,100750.84
2023-04-18T00:11:34.947Z,100756.22
2023-04-18T00:14:03.284Z,100748.28
2023-04-18T00:16:30.016Z,100750.00
2023-04-18T00:18:57.222Z,100747.38
2023-04-18T00:21:25.470Z,100736.03
2023-04-18T00:23:52.080Z,100748.88
2023-04-18T00:26:18.682Z,100751.72
2023-04-18T00:28:45.432Z,100747.03
2023-04-18T00:31:12.019Z,100747.47
2023-04-18T00:33:38.598Z,100749.69
2023-04-18T00:36:05.708Z,100749.91
2023-04-18T00:38:32.272Z,100750.63
2023-04-18T00:40:58.877Z,100741.84
2023-04-18T00:43:25.631Z,100743.16
2023-04-18T00:45:52.453Z,100749.81
2023-04-18T00:48:19.061Z,100737.28
2023-04-18T00:50:46.004Z,100740.97
2023-04-18T00:53:13.509Z,100732.34
2023-04-18T00:55:41.263Z,100741.28
2023-04-18T00:58:08.442Z,100735.19
2023-04-18T01:00:35.507Z,100736.19
2023-04-18T01:03:02.245Z,100731.81
2023-04-18T01:05:29.124Z,100734.19
2023-04-18T01:08:00.925Z,100733.34
2023-04-18T01:10:29.070Z,100741.28
2023-04-18T01:13:16.605Z,100733.91
2023-04-18T01:15:44.975Z,100737.41
2023-04-18T01:18:13.344Z,100726.66
2023-04-18T01:20:43.811Z,100738.81
2023-04-18T01:23:10.592Z,100742.34
2023-04-18T01:25:37.417Z,100735.59
2023-04-18T01:28:04.668Z,100725.13
2023-04-18T01:30:31.273Z,100722.03
2023-04-18T01:32:57.902Z,100723.75
2023-04-18T01:35:24.539Z,100718.66
2023-04-18T01:37:51.376Z,100714.97
2023-04-18T01:40:18.126Z,100717.75
2023-04-18T01:42:44.806Z,100719.84
2023-04-18T01:45:12.888Z,100717.16
2023-04-18T01:47:39.760Z,100714.16
2023-04-18T01:50:06.912Z,100710.03
2023-04-18T01:52:33.828Z,100705.47
2023-04-18T01:55:02.183Z,100706.47
2023-04-18T01:57:28.997Z,100705.78
2023-04-18T01:59:55.579Z,100706.63
2023-04-18T02:02:22.427Z,100711.84
2023-04-18T02:04:49.134Z,100708.56
2023-04-18T02:07:15.748Z,100709.94
2023-04-18T02:09:42.372Z,100712.47
2023-04-18T02:12:09.146Z,100705.53
2023-04-18T02:14:36.421Z,100710.31
2023-04-18T02:17:03.097Z,100707.19
2023-04-18T02:19:30.382Z,100706.88
2023-04-18T02:21:56.994Z,100702.19
2023-04-18T02:24:23.605Z,100690.41
2023-04-18T02:26:50.200Z,100701.09
2023-04-18T02:29:17.030Z,100699.78
2023-04-18T02:31:43.616Z,100699.50
2023-04-18T02:34:10.296Z,100708.78
2023-04-18T02:36:36.928Z,100707.81
2023-04-18T02:39:03.656Z,100712.69
2023-04-18T02:41:30.231Z,100712.56
2023-04-18T02:43:57.052Z,100712.41
2023-04-18T02:46:25.009Z,100714.66
2023-04-18T02:48:51.662Z,100721.72
2023-04-18T02:51:19.966Z,100714.66
2023-04-18T02:53:46.818Z,100720.03
2023-04-18T02:56:17.137Z,100712.06
2023-04-18T02:58:43.735Z,100708.69
2023-04-18T03:01:10.621Z,100706.16
2023-04-18T03:03:37.267Z,100703.25
2023-04-18T03:06:04.105Z,100715.66
2023-04-18T03:08:30.745Z,100712.88
2023-04-18T03:10:57.367Z,100710.81
2023-04-18T03:13:25.163Z,100709.56
2023-04-18T03:15:51.892Z,100704.94
2023-04-18T03:18:18.442Z,100706.56
2023-04-18T03:20:45.167Z,100706.84
2023-04-18T03:23:11.747Z,100698.09
2023-04-18T03:25:38.452Z,100691.63
2023-04-18T03:28:05.210Z,100698.41
2023-04-18T03:30:32.516Z,100697.63
2023-04-18T03:32:59.660Z,100701.19
2023-04-18T03:35:26.297Z,100699.19
2023-04-18T03:37:52.863Z,100700.56
2023-04-18T03:40:19.540Z,100702.25
2023-04-18T03:42:46.101Z,100695.47
2023-04-18T03:45:12.764Z,100705.00
2023-04-18T03:47:39.410Z,100697.56
2023-04-18T03:50:06.460Z,100697.72
2023-04-18T03:52:33.258Z,100702.41
2023-04-18T03:54:59.874Z,100701.00
2023-04-18T03:57:26.528Z,100691.84
2023-04-18T03:59:53.163Z,100700.81
2023-04-18T04:02:19.978Z,100708.81
2023-04-18T04:04:47.069Z,100703.31
2023-04-18T04:07:13.845Z,100702.22
2023-04-18T04:09:40.432Z,100705.50
2023-04-18T04:12:07.010Z,100703.50
2023-04-18T04:14:33.585Z,100700.66
2023-04-18T04:17:00.233Z,100705.69
2023-04-18T04:19:26.772Z,100706.94
2023-04-18T04:21:53.456Z,100706.50
2023-04-18T04:24:22.629Z,100709.72
2023-04-18T04:26:50.726Z,100712.97
2023-04-18T04:29:17.778Z,100718.03
2023-04-18T04:31:44.592Z,100713.19
2023-04-18T04:34:11.274Z,100723.53
2023-04-18T04:36:38.006Z,100719.44
2023-04-18T04:39:05.313Z,100722.81
2023-04-18T04:41:31.898Z,100721.84
2023-04-18T04:43:59.685Z,100719.84
2023-04-18T04:46:29.402Z,100721.06
2023-04-18T04:48:56.558Z,100723.31
2023-04-18T04:51:23.308Z,100729.78
2023-04-18T04:53:49.921Z,100725.66
2023-04-18T04:56:16.590Z,100728.56
2023-04-18T04:58:43.235Z,100734.88
2023-04-18T05:01:09.863Z,100742.19
2023-04-18T05:03:36.666Z,100743.28
2023-04-18T05:06:03.654Z,100741.34
2023-04-18T05:08:30.442Z,100745.81
2023-04-18T05:10:57.050Z,100740.09
2023-04-18T05:13:23.650Z,100746.53
2023-04-18T05:15:50.313Z,100744.94
2023-04-18T05:18:16.917Z,100751.63
2023-04-18T05:20:43.505Z,100749.16
2023-04-18T05:23:10.293Z,100754.84
2023-04-18T05:25:37.010Z,100744.81
2023-04-18T05:28:08.333Z,100761.78
2023-04-18T05:30:34.916Z,100762.41
2023-04-18T05:33:01.543Z,100759.63
2023-04-18T05:35:28.230Z,100765.25
2023-04-18T05:37:54.808Z,100767.47
2023-04-18T05:40:21.429Z,100767.28
2023-04-18T05:42:48.209Z,100774.72
2023-04-18T05:45:14.850Z,100767.44
2023-04-18T05:47:41.537Z,100763.91
2023-04-18T05:50:08.844Z,100771.44
2023-04-18T05:52:37.034Z,100779.63
2023-04-18T05:55:03.725Z,100781.19
2023-04-18T05:57:30.993Z,100772.47
2023-04-18T05:59:57.689Z,100786.88
2023-04-18T06:02:24.413Z,100798.78
2023-04-18T06:04:51.717Z,100795.53
2023-04-18T06:07:18.540Z,100783.91
2023-04-18T06:09:45.759Z,100798.09
2023-04-18T06:12:12.353Z,100797.09
2023-04-18T06:14:38.986Z,100799.22
2023-04-18T06:17:07.267Z,100804.97
2023-04-18T06:19:33.832Z,100809.31
2023-04-18T06:22:01.387Z,100804.16
2023-04-18T06:24:29.615Z,100804.78
2023-04-18T06:26:57.561Z,100809.00
2023-04-18T06:29:24.643Z,100810.84
2023-04-18T06:31:52.137Z,100809.34
2023-04-18T06:34:18.832Z,100816.50
2023-04-18T06:36:45.544Z,100821.09
2023-04-18T06:39:12.570Z,100817.94
2023-04-18T06:41:39.132Z,100816.75
2023-04-18T06:44:05.777Z,100814.09
2023-04-18T06:46:33.139Z,100818.78
2023-04-18T06:49:00.122Z,100819.47
2023-04-18T06:51:27.449Z,100828.22
2023-04-18T06:53:57.029Z,100822.38
2023-04-18T06:56:23.689Z,100825.66
2023-04-18T06:58:53.218Z,100828.84
2023-04-18T07:01:20.122Z,100834.16
2023-04-18T07:03:46.752Z,100836.06
2023-04-18T07:06:13.459Z,100830.06
2023-04-18T07:08:40.038Z,100833.88
2023-04-18T07:11:06.856Z,100835.47
2023-04-18T07:13:33.548Z,100833.44
2023-04-18T07:16:01.366Z,100838.28
2023-04-18T07:18:37.360Z,100830.03
2023-04-18T07:21:07.838Z,100834.69
2023-04-18T07:23:35.008Z,100830.06
2023-04-18T07:26:02.889Z,100837.38
2023-04-18T07:28:29.755Z,100839.34
2023-04-18T07:30:57.061Z,100833.63
2023-04-18T07:33:24.735Z,100844.53
2023-04-18T07:35:52.819Z,100843.56
2023-04-18T07:38:19.460Z,100841.25
2023-04-18T07:40:46.059Z,100847.09
2023-04-18T07:43:12.610Z,100843.84
2023-04-18T07:45:39.301Z,100844.50
2023-04-18T07:48:06.516Z,100841.97
2023-04-18T07:50:33.108Z,100839.22
2023-04-18T07:52:59.695Z,100849.91
2023-04-18T07:55:26.311Z,100848.47
2023-04-18T07:57:52.895Z,100854.47
2023-04-18T08:00:19.746Z,100847.34
2023-04-18T08:02:46.495Z,100859.22
2023-04-18T08:05:13.489Z,100861.84
2023-04-18T08:07:40.638Z,100860.81
2023-04-18T08:10:07.707Z,100864.44
2023-04-18T08:12:36.269Z,100861.38
2023-04-18T08:15:03.714Z,100863.31
2023-04-18T08:17:31.130Z,100869.25
2023-04-18T08:19:57.823Z,100869.72
2023-04-18T08:22:24.473Z,100867.44
2023-04-18T08:25:03.821Z,100868.94
2023-04-18T08:27:31.483Z,100878.53
2023-04-18T08:29:58.317Z,100881.53
2023-04-18T08:32:24.954Z,100881.53
2023-04-18T08:34:51.581Z,100881.31
2023-04-18T08:37:18.293Z,100881.50
2023-04-18T08:39:45.114Z,100888.91
2023-04-18T08:42:16.393Z,100884.38
2023-04-18T08:44:43.329Z,100881.50
2023-04-18T08:47:09.984Z,100891.06
2023-04-18T08:49:36.590Z,100886.16
2023-04-18T08:52:10.130Z,100890.78
2023-04-18T08:54:38.678Z,100879.34
2023-04-18T08:57:06.792Z,100885.97
2023-04-18T08:59:35.614Z,100887.56
2023-04-18T09:02:04.334Z,100889.59
2023-04-18T09:04:45.399Z,100889.72
2023-04-18T09:07:13.965Z,100886.06
2023-04-18T09:09:51.696Z,100889.00
2023-04-18T09:12:23.110Z,100889.16
2023-04-18T09:14:51.583Z,100883.81
2023-04-18T09:17:34.542Z,100883.13
2023-04-18T09:20:06.240Z,100880.50
2023-04-18T09:22:53.202Z,100874.59
2023-04-18T09:25:39.743Z,100877.97
2023-04-18T09:28:33.526Z,100868.78
2023-04-18T09:31:15.448Z,100876.00
2023-04-18T09:33:54.114Z,100872.03
2023-04-18T09:36:27.428Z,100871.88
2023-04-18T09:38:56.868Z,100876.22
2023-04-18T09:41:24.318Z,100879.22
2023-04-18T09:44:09.710Z,100877.19
2023-04-18T09:46:38.278Z,100869.53
2023-04-18T09:49:04.879Z,100869.84
2023-04-18T09:51:33.343Z,100872.19
2023-04-18T09:54:00.684Z,100868.00
2023-04-18T09:56:29.705Z,100867.38
2023-04-18T09:59:03.114Z,100865.19
2023-04-18T10:01:29.859Z,100862.44
2023-04-18T10:03:57.634Z,100875.19
2023-04-18T10:06:27.452Z,100871.06
2023-04-18T10:08:54.678Z,100868.16
2023-04-18T10:11:22.057Z,100870.03
2023-04-18T10:13:50.525Z,100873.88
2023-04-18T10:16:18.248Z,100853.28
2023-04-18T10:18:44.932Z,100857.66
2023-04-18T10:21:11.604Z,100858.59
2023-04-18T10:23:39.698Z,100845.16
2023-04-18T10:26:10.741Z,100853.50
2023-04-18T10:28:57.333Z,100839.41
2023-04-18T10:31:28.542Z,100855.50
2023-04-18T10:36:28.317Z,100856.63
2023-04-18T10:39:20.049Z,100856.34
2023-04-18T10:41:51.009Z,100856.38
2023-04-18T10:44:23.006Z,100842.56
2023-04-18T10:46:53.135Z,100840.72
2023-04-18T10:49:26.410Z,100837.47
2023-04-18T10:51:56.206Z,100838.28
2023-04-18T10:54:28.940Z,100829.63
2023-04-18T10:56:57.734Z,100822.47
2023-04-18T10:59:26.700Z,100828.03
2023-04-18T11:02:01.321Z,100822.72
2023-04-18T11:04:28.507Z,100803.22
2023-04-18T11:06:57.491Z,100822.00
2023-04-18T11:09:24.583Z,100821.72
2023-04-18T11:12:04.685Z,100813.03
2023-04-18T11:14:44.944Z,100828.91
2023-04-18T11:17:18.867Z,100799.72
2023-04-18T11:19:46.123Z,100800.97
2023-04-18T11:22:13.785Z,100809.38
2023-04-18T11:24:40.468Z,100803.41
2023-04-18T11:27:09.987Z,100794.09
2023-04-18T11:29:36.974Z,100800.63
2023-04-18T11:32:07.618Z,100791.78
2023-04-18T11:34:35.641Z,100797.56
2023-04-18T11:37:07.596Z,100793.34
2023-04-18T11:39:43.770Z,100776.50
2023-04-18T11:42:10.585Z,100794.56
2023-04-18T11:44:39.852Z,100799.50
2023-04-18T11:47:31.682Z,100799.69
2023-04-18T11:50:03.917Z,100792.53
2023-04-18T11:52:32.324Z,100799.03
2023-04-18T11:55:19.619Z,100793.53
2023-04-18T11:57:52.125Z,100795.59
2023-04-18T12:00:22.000Z,100797.88
2023-04-18T12:02:51.266Z,100794.38
2023-04-18T12:05:36.997Z,100799.88
2023-04-18T12:08:11.861Z,100790.44
2023-04-18T12:10:46.310Z,100800.16
2023-04-18T12:13:13.216Z,100797.25
2023-04-18T12:15:42.306Z,100816.19
2023-04-18T12:18:10.807Z,100804.44
2023-04-18T12:20:38.842Z,100812.25
2023-04-18T12:23:05.988Z,100806.09
2023-04-18T12:25:32.881Z,100795.25
2023-04-18T12:28:04.671Z,100803.66
2023-04-18T12:30:36.031Z,100794.63
2023-04-18T12:33:04.905Z,100797.13
2023-04-18T12:35:32.436Z,100804.69
2023-04-18T12:38:00.730Z,100799.00
2023-04-18T12:40:30.071Z,100796.19
2023-04-18T12:42:56.686Z,100805.44
2023-04-18T12:45:23.774Z,100811.19
2023-04-18T12:47:52.190Z,100801.66
2023-04-18T12:50:21.228Z,100803.56
2023-04-18T12:52:48.614Z,100800.00
2023-04-18T12:55:15.798Z,100806.78
2023-04-18T12:57:43.371Z,100803.56
2023-04-18T13:00:11.296Z,100806.50
2023-04-18T13:02:39.766Z,100797.69
2023-04-18T13:05:10.933Z,100796.84
2023-04-18T13:07:40.497Z,100798.72
2023-04-18T13:10:12.009Z,100796.94
2023-04-18T13:12:41.724Z,100806.56
2023-04-18T13:15:09.767Z,100801.94
2023-04-18T13:17:37.704Z,100802.28
2023-04-18T13:20:10.696Z,100801.28
2023-04-18T13:22:38.166Z,100799.63
2023-04-18T13:25:05.829Z,100800.66
2023-04-18T13:27:32.491Z,100792.28
2023-04-18T13:29:59.245Z,100795.19
2023-04-18T13:32:26.483Z,100794.16
2023-04-18T13:34:53.223Z,100797.91
2023-04-18T13:37:19.882Z,100794.72
2023-04-18T13:39:46.599Z,100794.56
2023-04-18T13:42:15.941Z,100791.84
2023-04-18T13:44:42.896Z,100789.66
2023-04-18T13:47:09.552Z,100785.16
2023-04-18T13:49:36.527Z,100788.50
2023-04-18T13:52:03.495Z,100789.63
2023-04-18T13:54:31.962Z,100791.72
2023-04-18T13:57:04.098Z,100783.44
2023-04-18T13:59:31.910Z,100787.47
2023-04-18T14:01:59.062Z,100780.88
2023-04-18T14:04:27.039Z,100784.03
2023-04-18T14:06:53.794Z,100795.91
2023-04-18T14:09:20.539Z,100785.31
2023-04-18T14:11:47.298Z,100788.09
2023-04-18T14:14:14.079Z,100791.38
2023-04-18T14:16:40.766Z,100786.78
2023-04-18T14:19:07.644Z,100782.53
2023-04-18T14:21:34.274Z,100788.72
2023-04-18T14:24:00.934Z,100786.53
2023-04-18T14:26:29.368Z,100775.59
2023-04-18T14:28:56.542Z,100776.19
2023-04-18T14:31:23.264Z,100780.81
2023-04-18T14:33:49.916Z,100775.34
2023-04-18T14:36:17.416Z,100788.88
2023-04-18T14:38:48.486Z,100779.19
2023-04-18T14:41:15.315Z,100781.63
2023-04-18T14:43:41.942Z,100769.53
2023-04-18T14:46:13.201Z,100774.66
2023-04-18T14:48:39.973Z,100778.34
2023-04-18T14:51:07.104Z,100774.03
2023-04-18T14:53:34.121Z,100770.56
2023-04-18T14:56:00.697Z,100767.22
2023-04-18T14:58:27.283Z,100769.22
2023-04-18T15:00:53.916Z,100779.69
2023-04-18T15:03:20.802Z,100779.63
2023-04-18T15:05:49.025Z,100776.94
2023-04-18T15:08:16.301Z,100772.03
2023-04-18T15:10:43.313Z,100779.88
2023-04-18T15:13:11.142Z,100791.44
2023-04-18T15:15:39.699Z,100780.06
2023-04-18T15:18:06.943Z,100787.34
2023-04-18T15:20:34.489Z,100792.38
2023-04-18T15:23:01.728Z,100780.47
2023-04-18T15:25:30.356Z,100788.31
2023-04-18T15:27:58.260Z,100783.41
2023-04-18T15:30:25.245Z,100785.88
2023-04-18T15:32:52.234Z,100791.38
2023-04-18T15:35:18.954Z,100793.06
2023-04-18T15:37:45.748Z,100792.78
2023-04-18T15:40:16.199Z,100784.66
2023-04-18T15:42:43.741Z,100784.97
2023-04-18T15:45:11.152Z,100787.75
2023-04-18T15:47:38.851Z,100791.13
2023-04-18T15:50:06.222Z,100788.75
2023-04-18T15:52:32.912Z,100788.00
2023-04-18T15:55:00.415Z,100798.72
2023-04-18T15:57:29.300Z,100786.91
2023-04-18T15:59:56.712Z,100791.09
2023-04-18T16:02:23.338Z,100797.22
2023-04-18T16:04:50.201Z,100800.84
2023-04-18T16:07:16.926Z,100798.13
2023-04-18T16:09:43.582Z,100799.19
2023-04-18T16:12:10.252Z,100801.69
2023-04-18T16:14:36.911Z,100801.69
2023-04-18T16:17:03.748Z,100800.44
2023-04-18T16:19:30.497Z,100809.91
2023-04-18T16:21:57.529Z,100798.97
2023-04-18T16:24:25.709Z,100812.03
2023-04-18T16:26:53.652Z,100803.59
2023-04-18T16:29:20.425Z,100815.19
2023-04-18T16:31:47.838Z,100807.84
2023-04-18T16:34:15.829Z,100811.03
2023-04-18T16:36:42.791Z,100816.09
2023-04-18T16:39:09.472Z,100814.78
2023-04-18T16:41:36.118Z,100814.19
2023-04-18T16:44:02.712Z,100820.06
2023-04-18T16:46:32.279Z,100817.75
2023-04-18T16:48:59.255Z,100825.31
2023-04-18T16:51:26.468Z,100822.81
2023-04-18T16:53:53.105Z,100821.75
2023-04-18T16:56:19.685Z,100829.13
2023-04-18T16:58:47.517Z,100824.50
2023-04-18T17:01:14.225Z,100825.13
2023-04-18T17:03:41.092Z,100827.44
2023-04-18T17:06:07.784Z,100833.09
2023-04-18T17:08:34.485Z,100826.19
2023-04-18T17:11:02.309Z,100823.88
2023-04-18T17:13:31.438Z,100825.97
2023-04-18T17:15:58.213Z,100824.91
2023-04-18T17:18:25.117Z,100820.69
2023-04-18T17:20:52.518Z,100826.97
2023-04-18T17:23:19.283Z,100834.53
2023-04-18T17:25:46.297Z,100835.59
2023-04-18T17:28:13.865Z,100832.63
2023-04-18T17:30:44.260Z,100831.31
2023-04-18T17:33:11.161Z,100834.06
2023-04-18T17:35:41.401Z,100832.56
2023-04-18T17:38:08.559Z,100837.78
2023-04-18T17:40:35.334Z,100841.78
2023-04-18T17:43:01.928Z,100845.28
2023-04-18T17:45:28.512Z,100842.53
2023-04-18T17:47:57.504Z,100857.63
2023-04-18T17:50:24.198Z,100850.19
2023-04-18T17:52:50.775Z,100857.50
2023-04-18T17:55:17.376Z,100862.72
2023-04-18T17:57:43.932Z,100861.19
2023-04-18T18:00:11.970Z,100859.09
2023-04-18T18:02:38.835Z,100863.44
2023-04-18T18:05:06.085Z,100859.63
2023-04-18T18:07:37.112Z,100863.75
2023-04-18T18:10:04.940Z,100865.59
2023-04-18T18:12:32.312Z,100875.44
2023-04-18T18:14:59.108Z,100868.22
2023-04-18T18:17:25.874Z,100880.34
2023-04-18T18:19:52.557Z,100868.13
2023-04-18T18:22:21.274Z,100875.00
2023-04-18T18:24:47.778Z,100882.66
2023-04-18T18:27:14.771Z,100872.13
2023-04-18T18:29:41.390Z,100884.06
2023-04-18T18:32:08.111Z,100888.38
2023-04-18T18:34:34.854Z,100889.66
2023-04-18T18:37:01.517Z,100895.00
2023-04-18T18:39:28.114Z,100900.66
2023-04-18T18:41:54.771Z,100909.19
2023-04-18T18:44:21.483Z,100913.34
2023-04-18T18:46:48.106Z,100912.25
2023-04-18T18:49:15.037Z,100916.09
2023-04-18T18:51:41.740Z,100929.38
2023-04-18T18:54:08.393Z,100925.81
2023-04-18T18:56:34.981Z,100933.38
2023-04-18T18:59:01.609Z,100938.38
2023-04-18T19:01:30.222Z,100937.63
2023-04-18T19:03:56.985Z,100938.56
2023-04-18T19:06:23.684Z,100948.97
2023-04-18T19:08:50.331Z,100954.31
2023-04-18T19:11:18.299Z,100950.00
2023-04-18T19:13:45.152Z,100953.75
2023-04-18T19:16:12.950Z,100957.84
2023-04-18T19:18:53.055Z,100965.34
2023-04-18T19:21:20.407Z,100967.41
2023-04-18T19:23:47.047Z,100967.13
2023-04-18T19:26:13.901Z,100971.34
2023-04-18T19:29:06.109Z,100972.00
2023-04-18T19:31:53.890Z,100976.75
2023-04-18T19:34:22.288Z,100978.81
2023-04-18T19:36:49.213Z,100978.16
2023-04-18T19:39:16.581Z,100983.59
2023-04-18T19:41:43.257Z,100982.41
2023-04-18T19:44:09.853Z,100983.13
2023-04-18T19:46:39.474Z,100984.16
2023-04-18T19:49:06.279Z,100985.91
2023-04-18T19:51:32.851Z,100989.38
2023-04-18T19:53:59.587Z,100986.16
2023-04-18T19:56:26.475Z,100979.94
2023-04-18T19:58:53.326Z,100997.25
2023-04-18T20:01:20.936Z,100997.16
2023-04-18T20:03:48.194Z,101002.06
2023-04-18T20:06:16.180Z,101008.19
2023-04-18T20:08:43.188Z,101007.19
2023-04-18T20:11:10.908Z,101004.81
2023-04-18T20:13:38.295Z,101007.59
2023-04-18T20:16:08.347Z,101018.16
2023-04-18T20:18:39.439Z,101012.41
2023-04-18T20:21:08.067Z,101020.97
2023-04-18T20:23:35.551Z,101020.09
2023-04-18T20:26:03.101Z,101026.75
2023-04-18T20:28:31.255Z,101026.63
2023-04-18T20:30:57.914Z,101033.78
2023-04-18T20:33:24.569Z,101032.78
2023-04-18T20:35:51.159Z,101037.72
2023-04-18T20:38:17.750Z,101033.00
2023-04-18T20:40:44.957Z,101029.28
2023-04-18T20:43:13.585Z,101042.50
2023-04-18T20:45:42.827Z,101036.09
2023-04-18T20:48:09.778Z,101024.59
2023-04-18T20:50:36.366Z,101038.81
2023-04-18T20:53:04.010Z,101040.50
2023-04-18T20:55:30.993Z,101043.88
2023-04-18T20:57:58.667Z,101042.22
2023-04-18T21:00:25.543Z,101036.78
2023-04-18T21:02:52.288Z,101040.66
2023-04-18T21:05:18.974Z,101043.53
2023-04-18T21:07:45.927Z,101046.94
2023-04-18T21:10:12.663Z,101054.25
2023-04-18T21:12:39.317Z,101053.03
2023-04-18T21:15:06.382Z,101055.06
2023-04-18T21:17:32.995Z,101056.44
2023-04-18T21:19:59.614Z,101054.75
2023-04-18T21:22:26.296Z,101053.41
2023-04-18T21:24:52.896Z,101053.22
2023-04-18T21:27:19.530Z,101046.28
2023-04-18T21:29:46.120Z,101052.06
2023-04-18T21:32:12.789Z,101048.00
2023-04-18T21:34:40.904Z,101046.63
2023-04-18T21:37:07.558Z,101061.34
2023-04-18T21:39:34.222Z,101051.69
2023-04-18T21:42:01.865Z,101054.09
2023-04-18T21:44:28.498Z,101062.41
2023-04-18T21:46:56.585Z,101055.94
2023-04-18T21:49:28.461Z,101057.09
2023-04-18T21:51:56.690Z,101051.69
2023-04-18T21:54:23.993Z,101058.13
2023-04-18T21:56:50.583Z,101061.50
2023-04-18T21:59:18.466Z,101051.16
2023-04-18T22:01:45.399Z,101060.59
2023-04-18T22:04:15.164Z,101059.69
2023-04-18T22:06:43.876Z,101070.84
2023-04-18T22:09:11.797Z,101064.09
2023-04-18T22:11:38.430Z,101067.78
2023-04-18T22:14:05.181Z,101057.63
2023-04-18T22:16:33.403Z,101074.16
2023-04-18T22:19:01.188Z,101072.47
2023-04-18T22:21:27.874Z,101070.63
2023-04-18T22:23:54.437Z,101068.22
2023-04-18T22:26:21.041Z,101070.59
2023-04-18T22:28:48.126Z,101071.75
2023-04-18T22:31:14.820Z,101068.69
2023-04-18T22:33:41.460Z,101067.69
2023-04-18T22:36:08.256Z,101075.97
2023-04-18T22:38:34.837Z,101077.66
2023-04-18T22:41:01.391Z,101064.13
2023-04-18T22:43:28.249Z,101064.66
2023-04-18T22:45:54.977Z,101067.03
2023-04-18T22:48:21.769Z,101066.53
2023-04-18T22:50:49.901Z,101068.03
2023-04-18T22:53:16.880Z,101075.50
2023-04-18T22:55:44.583Z,101079.06
2023-04-18T22:58:11.675Z,101077.88
2023-04-18T23:00:38.296Z,101077.25
2023-04-18T23:03:05.234Z,101076.59
2023-04-18T23:05:32.145Z,101078.50
2023-04-18T23:08:00.325Z,101082.75
2023-04-18T23:10:27.416Z,101078.88
2023-04-18T23:12:54.041Z,101084.31
2023-04-18T23:15:22.798Z,101082.78
2023-04-18T23:17:51.316Z,101078.72
2023-04-18T23:20:17.960Z,101080.59
2023-04-18T23:22:44.556Z,101077.56
2023-04-18T23:25:11.123Z,101077.75
2023-04-18T23:27:37.778Z,101083.47
2023-04-18T23:30:04.816Z,101072.31
2023-04-18T23:32:31.451Z,101080.75
2023-04-18T23:34:58.239Z,101073.81
2023-04-18T23:37:24.848Z,101076.22
2023-04-18T23:39:51.651Z,101069.63
2023-04-18T23:42:18.273Z,101066.56
2023-04-18T23:44:45.119Z,101074.19
2023-04-18T23:47:11.825Z,101063.00
2023-04-18T23:49:38.509Z,101067.22
2023-04-18T23:52:05.241Z,101068.75
2023-04-18T23:54:31.803Z,101065.56
2023-04-18T23:56:58.508Z,101066.56
2023-04-18T23:59:25.112Z,101063.53
